Time;durP1;ratioP1;P1;durP2;ratioP2;P2;SDS_P1;SDS_P2;PMS_P1;PMS_P2;Temp;Humidity;BMP_temperature;BMP_pressure;BME280_temperature;BME280_humidity;BME280_pressure;Samples;Min_cycle;Max_cycle;Signal;HPM_P1;HPM_P2
2022/09/25 00:01:20;;;;;;;7.45;2.00;;;10.20;99.90;;;;;;5122156;27;20462;-81
2022/09/25 00:03:47;;;;;;;6.75;1.88;;;10.20;99.90;;;;;;5106367;27;20042;-81
2022/09/25 00:06:18;;;;;;;5.97;1.42;;;10.20;99.90;;;;;;5106874;27;20065;-81
2022/09/25 00:08:45;;;;;;;10.25;2.28;;;10.20;99.90;;;;;;5100710;27;20145;-81
2022/09/25 00:11:22;;;;;;;6.55;1.90;;;10.20;99.90;;;;;;5119158;27;20062;-81
2022/09/25 00:13:48;;;;;;;7.63;2.50;;;10.20;99.90;;;;;;5121414;27;20503;-81
2022/09/25 00:16:16;;;;;;;7.07;1.70;;;10.10;99.90;;;;;;5102962;27;20042;-81
2022/09/25 00:21:28;;;;;;;8.70;2.00;;;10.10;99.90;;;;;;5114292;27;20047;-81
2022/09/25 00:23:54;;;;;;;7.50;1.65;;;10.10;99.90;;;;;;5102317;27;20027;-81
2022/09/25 00:26:19;;;;;;;6.68;1.73;;;10.10;99.90;;;;;;5124407;27;20155;-81
2022/09/25 00:28:45;;;;;;;6.47;1.70;;;10.10;99.90;;;;;;5121699;28;20076;-81
2022/09/25 00:31:18;;;;;;;5.93;1.58;;;10.10;99.90;;;;;;5130616;27;20035;-81
2022/09/25 00:33:43;;;;;;;7.65;1.85;;;10.10;99.90;;;;;;5119756;28;20039;-81
2022/09/25 00:36:10;;;;;;;5.03;1.67;;;10.00;99.90;;;;;;5127966;28;20507;-81
2022/09/25 00:38:36;;;;;;;8.40;1.95;;;10.00;99.90;;;;;;5113512;28;20035;-81
2022/09/25 00:41:04;;;;;;;6.55;2.22;;;10.00;99.90;;;;;;5113024;28;20477;-81
2022/09/25 00:43:44;;;;;;;5.57;1.85;;;10.00;99.90;;;;;;5097428;27;20037;-81
2022/09/25 00:46:32;;;;;;;6.70;1.55;;;10.00;99.90;;;;;;5117374;27;20054;-81
2022/09/25 00:49:00;;;;;;;5.20;1.63;;;9.90;99.90;;;;;;5116702;27;20049;-81
2022/09/25 00:51:33;;;;;;;7.03;1.70;;;9.90;99.90;;;;;;5099613;27;20130;-81
2022/09/25 00:54:02;;;;;;;7.68;2.10;;;9.90;99.90;;;;;;5099796;27;20649;-81
2022/09/25 00:56:33;;;;;;;7.50;2.15;;;9.80;99.90;;;;;;5116871;27;20043;-81
2022/09/25 00:58:59;;;;;;;7.18;2.00;;;9.80;99.90;;;;;;5116206;27;20035;-81
2022/09/25 01:01:24;;;;;;;4.82;1.67;;;9.70;99.90;;;;;;5099813;27;20035;-81
2022/09/25 01:03:50;;;;;;;5.10;1.60;;;9.70;99.90;;;;;;5100212;27;20407;-81
2022/09/25 01:06:16;;;;;;;6.22;1.60;;;9.70;99.90;;;;;;5107898;27;20046;-81
2022/09/25 01:08:42;;;;;;;10.73;2.00;;;9.70;99.90;;;;;;5116777;27;20035;-81
2022/09/25 01:11:08;;;;;;;5.57;1.90;;;9.70;99.90;;;;;;5115967;27;20657;-81
2022/09/25 01:13:33;;;;;;;8.88;2.17;;;9.70;99.90;;;;;;5116508;27;20064;-81
2022/09/25 01:16:33;;;;;;;6.97;1.90;;;9.70;99.90;;;;;;5097618;27;20516;-81
2022/09/25 01:19:37;;;;;;;6.00;1.60;;;9.70;99.90;;;;;;5114734;27;20447;-81
2022/09/25 01:22:12;;;;;;;6.45;1.70;;;9.70;99.90;;;;;;5124161;27;20062;-81
2022/09/25 01:25:10;;;;;;;7.43;2.08;;;9.60;99.90;;;;;;5111715;27;20123;-81
2022/09/25 01:27:58;;;;;;;7.93;2.00;;;9.60;99.90;;;;;;5122982;27;20035;-81
2022/09/25 01:30:24;;;;;;;7.38;1.40;;;9.60;99.90;;;;;;5116334;27;20432;-81
2022/09/25 01:33:17;;;;;;;8.30;2.17;;;9.60;99.90;;;;;;5102132;27;20035;-81
2022/09/25 01:36:00;;;;;;;7.00;1.75;;;9.50;99.90;;;;;;5099413;27;20311;-81
2022/09/25 01:38:35;;;;;;;5.80;1.75;;;9.50;99.90;;;;;;5118083;27;20412;-81
2022/09/25 01:41:09;;;;;;;3.60;1.50;;;9.50;99.90;;;;;;5115909;27;20039;-81
2022/09/25 01:43:41;;;;;;;5.32;1.90;;;9.50;99.90;;;;;;5115699;27;20430;-81
2022/09/25 01:46:22;;;;;;;5.40;1.70;;;9.40;99.90;;;;;;5122476;27;20043;-81
2022/09/25 01:48:57;;;;;;;7.18;1.65;;;9.50;99.90;;;;;;5116059;27;20377;-81
2022/09/25 01:51:33;;;;;;;7.18;1.77;;;9.40;99.90;;;;;;5117235;27;20043;-81
2022/09/25 01:54:04;;;;;;;8.00;1.88;;;9.40;99.90;;;;;;5115573;27;20514;-81
2022/09/25 01:56:41;;;;;;;8.93;2.10;;;9.40;99.90;;;;;;5117071;27;20576;-81
2022/09/25 01:59:22;;;;;;;8.63;1.45;;;9.40;99.90;;;;;;5116007;27;20031;-81
2022/09/25 02:01:48;;;;;;;4.25;1.50;;;9.30;99.90;;;;;;5122802;27;20099;-81
2022/09/25 02:04:17;;;;;;;5.03;1.40;;;9.20;99.90;;;;;;5098738;27;20122;-81
2022/09/25 02:06:46;;;;;;;5.72;1.60;;;9.20;99.90;;;;;;5096881;27;20381;-81
2022/09/25 02:09:23;;;;;;;3.53;0.93;;;9.20;99.90;;;;;;5117125;27;20113;-81
2022/09/25 02:11:53;;;;;;;6.05;1.35;;;9.10;99.90;;;;;;5113346;27;20118;-81
2022/09/25 02:14:25;;;;;;;2.97;1.23;;;9.10;99.90;;;;;;5119660;27;20030;-81
2022/09/25 02:16:55;;;;;;;6.75;1.60;;;9.10;99.90;;;;;;5115883;27;20462;-81
2022/09/25 02:22:19;;;;;;;6.53;2.10;;;9.10;99.90;;;;;;5114438;27;20042;-81
2022/09/25 02:24:56;;;;;;;6.32;2.00;;;9.10;99.90;;;;;;5098440;27;20039;-81
2022/09/25 02:27:26;;;;;;;4.97;2.10;;;9.10;99.90;;;;;;5102165;27;20492;-81
2022/09/25 02:29:51;;;;;;;7.13;1.65;;;9.10;99.90;;;;;;5114646;27;20049;-81
2022/09/25 02:32:21;;;;;;;5.78;1.95;;;9.10;99.90;;;;;;5097406;27;20043;-81
2022/09/25 02:34:47;;;;;;;6.93;2.17;;;9.10;99.90;;;;;;5114544;27;20035;-81
2022/09/25 02:37:15;;;;;;;8.40;2.05;;;9.10;99.90;;;;;;5115426;27;20035;-81
2022/09/25 02:39:43;;;;;;;7.93;2.25;;;9.10;99.90;;;;;;5114997;27;20496;-81
2022/09/25 02:42:27;;;;;;;5.95;1.90;;;9.10;99.90;;;;;;5114522;27;20092;-81
2022/09/25 02:44:55;;;;;;;8.13;2.00;;;9.10;99.90;;;;;;5121897;27;20042;-81
2022/09/25 02:47:36;;;;;;;9.85;2.20;;;9.00;99.90;;;;;;5114687;27;20070;-81
2022/09/25 02:50:35;;;;;;;76.63;4.10;;;9.00;99.90;;;;;;5114469;27;20062;-81
2022/09/25 02:53:39;;;;;;;5.47;1.33;;;9.00;99.90;;;;;;5112864;27;20194;-81
2022/09/25 02:56:16;;;;;;;3.83;1.45;;;8.90;99.90;;;;;;5069637;27;20473;-81
2022/09/25 02:58:51;;;;;;;8.05;1.48;;;8.90;99.90;;;;;;5117289;27;20050;-81
2022/09/25 03:01:20;;;;;;;3.67;1.33;;;8.90;99.90;;;;;;5114667;27;20054;-81
2022/09/25 03:03:50;;;;;;;5.57;1.65;;;8.80;99.90;;;;;;5117093;27;20055;-81
2022/09/25 03:06:16;;;;;;;7.63;1.80;;;8.90;99.90;;;;;;5113757;27;20043;-81
2022/09/25 03:08:45;;;;;;;4.78;1.55;;;8.90;99.90;;;;;;5114584;27;20074;-81
2022/09/25 03:11:14;;;;;;;5.75;1.42;;;8.90;99.90;;;;;;5099852;27;20062;-81
2022/09/25 03:13:40;;;;;;;6.53;1.60;;;8.90;99.90;;;;;;5097475;27;20039;-81
2022/09/25 03:16:06;;;;;;;6.60;1.55;;;8.90;99.90;;;;;;5114240;27;20035;-81
2022/09/25 03:18:32;;;;;;;3.70;1.40;;;8.90;99.90;;;;;;5121494;27;20457;-81
2022/09/25 03:20:58;;;;;;;9.60;1.92;;;8.80;99.90;;;;;;5114299;27;20031;-81
2022/09/25 03:23:24;;;;;;;6.78;1.75;;;8.80;99.90;;;;;;5129353;27;20380;-81
2022/09/25 03:25:52;;;;;;;5.90;1.92;;;8.80;99.90;;;;;;5117571;27;20121;-81
2022/09/25 03:28:18;;;;;;;9.88;2.22;;;8.80;99.90;;;;;;5129362;27;20045;-81
2022/09/25 03:30:53;;;;;;;5.30;1.90;;;8.80;99.90;;;;;;5113914;27;20720;-81
2022/09/25 03:33:19;;;;;;;4.88;1.70;;;8.80;99.90;;;;;;5099465;27;20067;-81
2022/09/25 03:35:44;;;;;;;5.90;1.88;;;8.80;99.90;;;;;;5113909;27;20478;-81
2022/09/25 03:38:11;;;;;;;7.45;2.03;;;8.80;99.90;;;;;;5114334;27;20373;-81
2022/09/25 03:40:36;;;;;;;6.60;1.70;;;8.80;99.90;;;;;;5116563;27;20508;-81
2022/09/25 03:43:02;;;;;;;6.45;1.88;;;8.80;99.90;;;;;;5113795;27;20088;-81
2022/09/25 03:45:28;;;;;;;7.00;1.85;;;8.80;99.90;;;;;;5097943;27;20440;-81
2022/09/25 03:47:53;;;;;;;4.55;1.80;;;8.80;99.90;;;;;;5101568;28;20047;-81
2022/09/25 03:50:19;;;;;;;7.47;2.15;;;8.80;99.90;;;;;;5097400;28;20058;-81
2022/09/25 03:52:44;;;;;;;6.43;1.95;;;8.80;99.90;;;;;;5098479;27;20091;-81
2022/09/25 03:55:10;;;;;;;5.03;1.90;;;8.80;99.90;;;;;;5113498;28;20039;-81
2022/09/25 03:57:37;;;;;;;7.60;1.75;;;8.80;99.90;;;;;;5113187;27;20500;-81
2022/09/25 04:00:04;;;;;;;6.50;1.77;;;8.80;99.90;;;;;;5113266;28;20567;-81
2022/09/25 04:02:30;;;;;;;6.18;1.98;;;8.80;99.90;;;;;;5114096;27;20089;-81
2022/09/25 04:04:55;;;;;;;7.70;2.03;;;8.80;99.90;;;;;;5133171;27;20126;-81
2022/09/25 04:07:22;;;;;;;5.97;1.73;;;8.80;99.90;;;;;;5134345;27;20049;-81
2022/09/25 04:09:48;;;;;;;6.05;1.50;;;8.80;99.90;;;;;;5118388;28;20453;-81
2022/09/25 04:12:13;;;;;;;7.47;1.60;;;8.70;99.90;;;;;;5113253;28;20499;-81
2022/09/25 04:14:41;;;;;;;11.55;1.90;;;8.80;99.90;;;;;;5119289;28;20492;-81
2022/09/25 04:17:07;;;;;;;6.03;1.55;;;8.70;99.90;;;;;;5114844;27;20035;-81
2022/09/25 04:19:32;;;;;;;7.22;1.70;;;8.70;99.90;;;;;;5117891;27;20385;-81
2022/09/25 04:21:58;;;;;;;5.15;1.95;;;8.70;99.90;;;;;;5100376;27;20046;-81
2022/09/25 04:27:08;;;;;;;4.43;1.45;;;8.70;99.90;;;;;;5121645;27;20070;-81
2022/09/25 04:29:33;;;;;;;5.32;1.60;;;8.70;99.90;;;;;;5117531;27;20536;-81
2022/09/25 04:34:43;;;;;;;6.55;1.80;;;8.70;99.90;;;;;;5118415;27;20047;-81
2022/09/25 04:37:09;;;;;;;6.75;1.92;;;8.70;99.90;;;;;;5116964;27;20036;-81
2022/09/25 04:39:34;;;;;;;7.78;2.65;;;8.60;99.90;;;;;;5117876;27;20473;-81
2022/09/25 04:42:00;;;;;;;7.97;1.90;;;8.60;99.90;;;;;;5117119;27;20043;-81
2022/09/25 04:44:26;;;;;;;9.82;2.08;;;8.60;99.90;;;;;;5118457;27;20039;-81
2022/09/25 04:46:52;;;;;;;5.90;1.75;;;8.60;99.90;;;;;;5117126;27;20043;-81
2022/09/25 04:49:17;;;;;;;5.80;1.75;;;8.60;99.90;;;;;;5121860;27;20488;-81
2022/09/25 04:51:43;;;;;;;9.07;1.83;;;8.60;99.90;;;;;;5116487;27;20126;-81
2022/09/25 04:54:08;;;;;;;7.35;2.05;;;8.60;99.90;;;;;;5116652;27;20403;-81
2022/09/25 04:56:34;;;;;;;6.32;2.53;;;8.60;99.90;;;;;;5100143;27;20035;-81
2022/09/25 04:58:59;;;;;;;5.32;1.60;;;8.60;99.90;;;;;;5117133;27;20039;-81
2022/09/25 05:01:25;;;;;;;7.30;1.60;;;8.60;99.90;;;;;;5107516;27;20114;-81
2022/09/25 05:03:52;;;;;;;5.38;1.70;;;8.60;99.90;;;;;;5116793;27;20122;-81
2022/09/25 05:06:18;;;;;;;6.72;1.83;;;8.60;99.90;;;;;;5110970;27;20038;-81
2022/09/25 05:08:48;;;;;;;11.50;2.20;;;8.60;99.90;;;;;;5116523;27;20472;-81
2022/09/25 05:11:14;;;;;;;7.00;1.60;;;8.60;99.90;;;;;;5101262;27;20084;-81
2022/09/25 05:13:40;;;;;;;5.80;1.80;;;8.60;99.90;;;;;;5099452;27;20039;-81
2022/09/25 05:16:06;;;;;;;4.95;1.80;;;8.60;99.90;;;;;;5116555;27;20503;-80
2022/09/25 05:18:32;;;;;;;7.32;1.98;;;8.60;99.90;;;;;;5115972;27;20043;-81
2022/09/25 05:21:03;;;;;;;5.28;1.60;;;8.60;99.90;;;;;;5134499;27;20031;-81
2022/09/25 05:23:28;;;;;;;4.82;1.83;;;8.50;99.90;;;;;;5099719;27;20091;-81
2022/09/25 05:25:56;;;;;;;12.07;1.83;;;8.50;99.90;;;;;;5117471;27;20129;-81
2022/09/25 05:28:23;;;;;;;5.03;1.50;;;8.50;99.90;;;;;;5115511;27;20408;-81
2022/09/25 05:30:49;;;;;;;4.10;1.20;;;8.40;99.90;;;;;;5123415;27;20035;-81
2022/09/25 05:33:16;;;;;;;4.88;1.58;;;8.40;99.90;;;;;;5096427;27;20031;-81
2022/09/25 05:35:42;;;;;;;5.97;1.48;;;8.40;99.90;;;;;;5098612;27;20510;-81
2022/09/25 05:38:08;;;;;;;6.90;1.85;;;8.40;99.90;;;;;;5120779;27;20034;-81
2022/09/25 05:40:33;;;;;;;6.57;1.77;;;8.40;99.90;;;;;;5115366;27;20084;-81
2022/09/25 05:43:00;;;;;;;8.88;2.58;;;8.50;99.90;;;;;;5115461;27;20427;-81
2022/09/25 05:45:26;;;;;;;7.90;1.65;;;8.50;99.90;;;;;;5118291;27;20488;-81
2022/09/25 05:48:02;;;;;;;4.95;1.60;;;8.50;99.90;;;;;;5115552;27;20046;-81
2022/09/25 05:50:28;;;;;;;9.88;1.90;;;8.60;99.90;;;;;;5117681;27;20558;-81
2022/09/25 05:52:59;;;;;;;7.95;2.08;;;8.50;99.90;;;;;;5115296;27;20130;-81
2022/09/25 05:55:25;;;;;;;6.63;1.77;;;8.60;99.90;;;;;;5119007;27;20099;-81
2022/09/25 05:57:50;;;;;;;5.20;1.75;;;8.60;99.90;;;;;;5101073;27;20058;-81
2022/09/25 06:00:17;;;;;;;4.82;1.60;;;8.60;99.90;;;;;;5098464;27;20127;-81
2022/09/25 06:02:43;;;;;;;6.18;1.40;;;8.50;99.90;;;;;;5114411;27;20049;-81
2022/09/25 06:05:09;;;;;;;6.97;1.60;;;8.60;99.90;;;;;;5114718;27;20043;-81
2022/09/25 06:07:35;;;;;;;6.45;1.95;;;8.60;99.90;;;;;;5114835;27;20035;-81
2022/09/25 06:10:01;;;;;;;7.07;1.70;;;8.60;99.90;;;;;;5114433;27;20039;-81
2022/09/25 06:12:30;;;;;;;6.00;1.80;;;8.60;99.90;;;;;;5097645;27;20045;-81
2022/09/25 06:14:55;;;;;;;7.70;1.80;;;8.60;99.90;;;;;;5116864;27;20041;-81
2022/09/25 06:17:21;;;;;;;8.95;2.05;;;8.60;99.90;;;;;;5114524;27;20043;-81
2022/09/25 06:19:46;;;;;;;4.72;1.50;;;8.60;99.90;;;;;;5114956;27;20450;-81
2022/09/25 06:22:12;;;;;;;6.97;2.30;;;8.60;99.90;;;;;;5133173;27;20066;-81
2022/09/25 06:24:38;;;;;;;6.05;2.10;;;8.60;99.90;;;;;;5114340;27;20050;-81
2022/09/25 06:27:05;;;;;;;6.72;1.52;;;8.70;99.90;;;;;;5119694;27;20035;-81
2022/09/25 06:29:31;;;;;;;5.07;1.60;;;8.70;99.90;;;;;;5114271;27;20043;-81
2022/09/25 06:31:56;;;;;;;5.82;1.70;;;8.70;99.90;;;;;;5113187;27;20042;-81
2022/09/25 06:34:22;;;;;;;4.75;1.48;;;8.70;99.90;;;;;;5121279;27;20035;-81
2022/09/25 06:36:48;;;;;;;5.68;1.50;;;8.70;99.90;;;;;;5114626;27;20035;-81
2022/09/25 06:39:13;;;;;;;7.45;1.75;;;8.80;99.90;;;;;;5119615;27;20035;-81
2022/09/25 06:41:40;;;;;;;4.10;1.42;;;8.80;99.90;;;;;;5113990;27;20032;-81
2022/09/25 06:44:08;;;;;;;7.22;1.50;;;8.90;99.90;;;;;;5096725;27;20114;-81
2022/09/25 06:46:34;;;;;;;8.00;1.80;;;8.90;99.90;;;;;;5118442;27;20089;-81
2022/09/25 06:49:00;;;;;;;4.85;1.55;;;8.90;99.90;;;;;;5103438;27;20039;-80
2022/09/25 06:51:31;;;;;;;7.30;1.70;;;8.90;99.90;;;;;;5115502;27;20464;-81
2022/09/25 06:53:57;;;;;;;5.63;1.55;;;9.00;99.90;;;;;;5119052;27;20050;-81
2022/09/25 06:56:23;;;;;;;7.20;2.20;;;9.00;99.90;;;;;;5124047;27;20115;-81
2022/09/25 06:58:49;;;;;;;5.97;1.60;;;9.10;99.90;;;;;;5118268;27;20122;-81
2022/09/25 07:01:15;;;;;;;5.25;2.15;;;9.10;99.90;;;;;;5123005;27;20099;-81
2022/09/25 07:03:44;;;;;;;5.25;1.83;;;9.20;99.90;;;;;;5104317;27;20039;-81
2022/09/25 07:06:12;;;;;;;6.05;1.77;;;9.20;99.90;;;;;;5104104;27;20079;-81
2022/09/25 07:08:38;;;;;;;6.28;1.55;;;9.30;99.90;;;;;;5106447;27;20070;-81
2022/09/25 07:11:05;;;;;;;4.20;1.55;;;9.40;99.90;;;;;;5117662;27;20056;-81
2022/09/25 07:13:34;;;;;;;5.68;1.75;;;9.40;99.90;;;;;;5121639;27;20031;-81
2022/09/25 07:16:01;;;;;;;8.48;2.10;;;9.50;99.90;;;;;;5102081;27;20071;-81
2022/09/25 07:18:28;;;;;;;5.70;1.67;;;9.50;99.90;;;;;;5123125;27;20039;-81
2022/09/25 07:21:00;;;;;;;5.45;1.52;;;9.60;99.90;;;;;;5122756;27;20045;-81
2022/09/25 07:23:25;;;;;;;3.75;1.40;;;9.70;99.90;;;;;;5106616;27;20587;-81
2022/09/25 07:25:51;;;;;;;6.63;1.88;;;9.80;99.90;;;;;;5123114;27;20508;-81
2022/09/25 07:28:18;;;;;;;6.32;1.80;;;9.80;99.90;;;;;;5117010;27;20027;-81
2022/09/25 07:30:45;;;;;;;6.55;1.67;;;9.90;99.90;;;;;;5096675;27;20084;-81
2022/09/25 07:33:11;;;;;;;4.97;1.73;;;10.00;99.90;;;;;;5113905;27;20058;-81
2022/09/25 07:35:37;;;;;;;9.13;1.63;;;10.10;99.90;;;;;;5103977;28;20408;-82
2022/09/25 07:38:03;;;;;;;7.07;2.00;;;10.20;99.90;;;;;;5114016;27;20514;-82
2022/09/25 07:40:30;;;;;;;10.07;1.73;;;10.30;99.90;;;;;;5104158;27;20027;-82
2022/09/25 07:43:03;;;;;;;9.05;1.70;;;10.30;99.90;;;;;;5113726;27;20071;-82
2022/09/25 07:45:29;;;;;;;8.70;1.95;;;10.40;99.90;;;;;;5113512;27;20038;-83
2022/09/25 07:47:59;;;;;;;8.05;1.88;;;10.50;99.90;;;;;;5116611;27;20035;-82
2022/09/25 07:50:25;;;;;;;11.75;2.33;;;10.60;99.90;;;;;;5113934;28;20043;-83
2022/09/25 07:52:52;;;;;;;13.65;2.03;;;10.70;99.90;;;;;;5096282;27;20031;-83
2022/09/25 07:55:18;;;;;;;8.50;2.05;;;10.80;99.90;;;;;;5113641;27;20176;-82
2022/09/25 07:57:44;;;;;;;10.40;2.10;;;10.90;99.90;;;;;;5118453;27;20118;-83
2022/09/25 08:00:12;;;;;;;7.65;1.67;;;11.00;99.90;;;;;;5106991;27;20039;-83
2022/09/25 08:02:37;;;;;;;9.55;1.98;;;11.10;99.90;;;;;;5122963;27;20049;-83
2022/09/25 08:05:03;;;;;;;8.07;1.95;;;11.20;99.90;;;;;;5140156;27;20035;-83
2022/09/25 08:07:29;;;;;;;9.63;1.92;;;11.30;99.90;;;;;;5116820;27;20046;-82
2022/09/25 08:09:55;;;;;;;5.38;1.85;;;11.30;99.90;;;;;;5124981;28;20513;-83
2022/09/25 08:12:23;;;;;;;12.50;2.08;;;11.40;99.90;;;;;;5113651;28;20042;-82
2022/09/25 08:14:50;;;;;;;7.60;2.20;;;11.50;99.90;;;;;;5123209;28;20036;-82
2022/09/25 08:17:15;;;;;;;14.18;2.28;;;11.60;99.90;;;;;;5113597;28;20035;-82
2022/09/25 08:19:41;;;;;;;9.48;2.95;;;11.70;99.90;;;;;;5096857;27;20045;-82
2022/09/25 08:22:06;;;;;;;9.65;1.90;;;11.90;99.90;;;;;;5096235;28;20051;-90
2022/09/25 08:24:32;;;;;;;7.47;1.63;;;12.00;99.90;;;;;;5097012;28;20051;-90
2022/09/25 08:26:57;;;;;;;9.13;1.73;;;12.00;99.90;;;;;;5096642;28;20035;-90
2022/09/25 08:29:23;;;;;;;6.97;1.77;;;12.10;99.90;;;;;;5096252;28;20056;-91
2022/09/25 08:31:49;;;;;;;12.50;3.60;;;12.20;99.90;;;;;;5096779;27;20068;-90
2022/09/25 08:34:15;;;;;;;9.73;1.92;;;12.40;99.90;;;;;;5113279;28;20427;-90
2022/09/25 08:36:41;;;;;;;7.65;1.80;;;12.50;99.90;;;;;;5095814;28;20499;-90
2022/09/25 08:39:07;;;;;;;10.90;3.40;;;12.50;99.90;;;;;;5137699;27;20031;-90
2022/09/25 08:41:49;;;;;;;10.20;1.95;;;12.70;99.90;;;;;;5096424;28;20050;-90
2022/09/25 08:44:36;;;;;;;5.72;1.15;;;12.80;99.90;;;;;;5112416;28;20050;-90
2022/09/25 08:50:13;;;;;;;9.65;2.40;;;12.90;99.90;;;;;;5120826;27;20121;-90
2022/09/25 08:52:43;;;;;;;6.28;1.38;;;13.10;99.90;;;;;;5112884;28;20046;-90
2022/09/25 08:55:15;;;;;;;9.07;1.70;;;13.20;99.90;;;;;;5112429;27;20046;-90
2022/09/25 08:57:42;;;;;;;6.18;0.98;;;13.30;99.90;;;;;;5096238;28;20039;-90
2022/09/25 09:00:20;;;;;;;7.80;1.20;;;13.40;99.90;;;;;;5095622;27;20042;-90
2022/09/25 09:02:52;;;;;;;11.07;1.92;;;13.40;99.90;;;;;;5113544;28;20254;-91
2022/09/25 09:05:32;;;;;;;5.20;1.27;;;13.50;99.90;;;;;;5116243;27;20031;-90
2022/09/25 09:08:12;;;;;;;8.75;1.77;;;13.70;99.90;;;;;;5117309;27;20500;-90
2022/09/25 09:11:01;;;;;;;6.22;1.45;;;13.80;99.90;;;;;;5099159;27;20048;-90
2022/09/25 09:13:38;;;;;;;7.00;1.65;;;13.90;99.90;;;;;;5116034;27;20122;-89
2022/09/25 09:16:16;;;;;;;8.60;1.85;;;14.00;99.90;;;;;;5116440;27;20031;-89
2022/09/25 09:18:43;;;;;;;8.70;1.70;;;14.10;99.90;;;;;;5141447;27;20034;-89
2022/09/25 09:21:47;;;;;;;11.23;1.70;;;14.20;99.90;;;;;;5135293;27;20038;-90
2022/09/25 09:24:17;;;;;;;8.52;1.80;;;14.30;99.90;;;;;;5031354;28;20044;-90
2022/09/25 09:27:02;;;;;;;8.93;1.20;;;14.40;99.90;;;;;;5023534;28;20053;-90
2022/09/25 09:29:39;;;;;;;8.18;1.80;;;14.50;99.90;;;;;;5017421;28;20090;-90
2022/09/25 09:32:26;;;;;;;11.65;1.73;;;14.70;99.90;;;;;;5033407;28;20068;-90
2022/09/25 09:35:06;;;;;;;10.80;1.50;;;14.80;99.90;;;;;;5033953;28;20049;-90
2022/09/25 09:37:42;;;;;;;7.47;1.23;;;14.90;99.90;;;;;;5029672;28;20037;-90
2022/09/25 09:40:27;;;;;;;8.43;1.58;;;14.90;99.90;;;;;;4997662;28;20045;-90
2022/09/25 09:43:13;;;;;;;10.63;3.10;;;14.90;99.90;;;;;;5008338;28;20044;-90
2022/09/25 09:46:04;;;;;;;10.60;2.17;;;15.00;99.90;;;;;;5015429;28;20128;-90
2022/09/25 09:48:39;;;;;;;10.82;1.75;;;15.10;99.90;;;;;;5021974;28;20546;-90
2022/09/25 09:51:14;;;;;;;9.45;2.28;;;15.10;99.90;;;;;;5029763;28;20745;-90
2022/09/25 09:53:48;;;;;;;9.00;1.85;;;15.30;99.90;;;;;;5013892;28;20060;-90
2022/09/25 09:56:23;;;;;;;8.18;1.77;;;15.40;99.90;;;;;;5020006;28;20503;-90
2022/09/25 09:58:54;;;;;;;9.85;2.35;;;15.60;99.90;;;;;;5072236;27;20051;-90
2022/09/25 10:01:22;;;;;;;9.68;2.38;;;15.70;99.90;;;;;;5102718;27;20076;-90
2022/09/25 10:03:54;;;;;;;13.13;1.52;;;15.90;99.90;;;;;;5118480;27;20046;-90
2022/09/25 10:06:28;;;;;;;9.90;2.03;;;16.00;99.90;;;;;;5115080;27;20515;-90
2022/09/25 10:08:54;;;;;;;9.80;2.83;;;16.10;99.90;;;;;;5116256;27;20039;-90
2022/09/25 10:11:20;;;;;;;8.88;3.20;;;16.20;99.90;;;;;;5097797;27;20050;-90
2022/09/25 10:13:47;;;;;;;9.05;2.25;;;16.30;99.90;;;;;;5101568;27;20052;-90
2022/09/25 10:16:21;;;;;;;6.95;2.30;;;16.40;99.90;;;;;;5114345;27;20035;-90
2022/09/25 10:18:50;;;;;;;6.90;1.30;;;16.50;99.90;;;;;;5115200;27;20041;-90
2022/09/25 10:21:20;;;;;;;9.50;1.63;;;16.50;99.90;;;;;;5121669;27;20519;-90
2022/09/25 10:23:45;;;;;;;8.68;1.60;;;16.60;99.90;;;;;;5097858;27;20045;-90
2022/09/25 10:26:35;;;;;;;5.90;1.30;;;16.60;99.90;;;;;;5121298;27;20035;-90
2022/09/25 10:29:03;;;;;;;8.38;1.60;;;16.60;99.90;;;;;;5114070;27;20122;-90
2022/09/25 10:31:33;;;;;;;6.68;1.10;;;16.60;99.90;;;;;;5095931;27;20054;-90
2022/09/25 10:34:02;;;;;;;8.77;1.48;;;16.60;99.90;;;;;;5113192;27;20039;-90
2022/09/25 10:36:31;;;;;;;7.60;1.40;;;16.70;99.90;;;;;;5096730;27;20031;-90
2022/09/25 10:38:57;;;;;;;4.78;1.00;;;16.60;99.90;;;;;;5117947;27;20042;-90
2022/09/25 10:41:24;;;;;;;6.22;1.33;;;16.40;99.90;;;;;;5113772;27;20045;-90
2022/09/25 10:43:55;;;;;;;6.40;1.15;;;16.20;99.90;;;;;;5101902;27;20084;-90
2022/09/25 10:52:16;;;;;;;6.78;1.23;;;16.00;99.90;;;;;;5113126;27;20039;-91
2022/09/25 10:54:42;;;;;;;5.93;1.40;;;15.90;99.90;;;;;;5102996;27;20424;-91
2022/09/25 10:57:37;;;;;;;7.88;1.17;;;15.80;99.90;;;;;;5096482;27;20035;-90
2022/09/25 11:00:23;;;;;;;5.35;1.17;;;15.80;99.90;;;;;;5113983;27;20035;-90
2022/09/25 11:02:59;;;;;;;4.32;1.20;;;15.80;99.90;;;;;;5100064;27;20499;-90
2022/09/25 11:05:32;;;;;;;9.13;1.90;;;15.80;99.90;;;;;;5113304;27;20042;-90
2022/09/25 11:08:00;;;;;;;8.30;2.22;;;15.90;99.90;;;;;;5119495;27;20080;-90
2022/09/25 11:10:35;;;;;;;7.07;1.80;;;15.90;99.90;;;;;;5096645;27;20038;-90
2022/09/25 11:13:07;;;;;;;7.43;1.30;;;16.10;99.90;;;;;;5116833;27;20083;-90
2022/09/25 11:15:35;;;;;;;4.63;1.20;;;16.20;99.90;;;;;;5120043;27;20500;-90
2022/09/25 11:18:01;;;;;;;8.65;1.80;;;16.30;99.90;;;;;;5121760;27;20039;-91
2022/09/25 11:20:29;;;;;;;18.20;9.20;;;16.50;99.90;;;;;;5113642;27;20057;-90
2022/09/25 11:23:36;;;;;;;16.02;7.10;;;16.60;99.90;;;;;;5125186;27;20091;-90
2022/09/25 11:26:11;;;;;;;11.70;4.00;;;16.70;99.90;;;;;;5124661;27;20088;-90
2022/09/25 11:28:41;;;;;;;7.35;1.88;;;16.80;99.90;;;;;;5115200;27;20454;-90
2022/09/25 11:31:34;;;;;;;8.50;1.60;;;16.80;99.90;;;;;;5113262;27;20042;-90
2022/09/25 11:34:18;;;;;;;;;;;16.90;99.90;;;;;;5112932;27;20050;-90
2022/09/25 11:36:52;;;;;;;6.20;1.70;;;16.80;99.90;;;;;;5112047;27;20196;-91
2022/09/25 11:43:04;;;;;;;7.95;2.17;;;17.10;99.90;;;;;;5108184;27;20125;-91
2022/09/25 11:45:45;;;;;;;4.78;1.30;;;17.20;99.90;;;;;;5115084;27;20068;-90
2022/09/25 11:48:25;;;;;;;8.43;2.88;;;17.30;99.90;;;;;;5118008;27;20039;-90
2022/09/25 11:51:34;;;;;;;5.30;1.50;;;17.50;99.90;;;;;;5122815;27;20035;-90
2022/09/25 11:54:39;;;;;;;3.45;0.82;;;17.60;99.90;;;;;;5083724;27;20058;-90
2022/09/25 11:57:12;;;;;;;4.18;0.98;;;17.90;99.90;;;;;;5062611;28;20577;-89
2022/09/25 11:59:49;;;;;;;3.50;0.80;;;18.00;99.90;;;;;;5104666;28;20039;-89
2022/09/25 12:02:24;;;;;;;5.32;1.00;;;18.20;99.90;;;;;;5112983;28;20031;-89
2022/09/25 12:05:11;;;;;;;3.67;0.88;;;18.40;99.90;;;;;;5102886;28;20039;-89
2022/09/25 12:08:08;;;;;;;7.88;1.67;;;18.50;99.90;;;;;;5113558;28;20035;-90
2022/09/25 12:10:46;;;;;;;7.18;1.45;;;18.70;99.90;;;;;;5100650;28;20035;-90
2022/09/25 12:13:30;;;;;;;5.72;1.10;;;18.90;99.90;;;;;;5113519;28;20047;-90
2022/09/25 12:16:11;;;;;;;3.78;0.90;;;19.10;99.90;;;;;;5136356;27;20027;-90
2022/09/25 12:18:50;;;;;;;3.35;0.75;;;19.40;99.90;;;;;;5112977;28;20031;-90
2022/09/25 12:21:24;;;;;;;4.80;1.00;;;19.50;99.90;;;;;;5096275;28;20035;-89
2022/09/25 12:24:07;;;;;;;5.70;0.90;;;19.40;99.90;;;;;;5114702;28;20073;-89
2022/09/25 12:26:39;;;;;;;;;;;19.30;99.90;;;;;;5103303;27;20702;-89
2022/09/25 12:29:27;;;;;;;5.03;0.90;;;19.10;99.90;;;;;;5114088;28;20360;-90
2022/09/25 12:32:15;;;;;;;4.80;1.00;;;19.10;99.90;;;;;;5113428;28;20043;-89
2022/09/25 12:35:06;;;;;;;5.65;1.00;;;19.10;99.90;;;;;;5101308;28;20088;-89
2022/09/25 12:37:53;;;;;;;9.27;2.60;;;19.00;99.90;;;;;;5113327;27;20059;-89
2022/09/25 12:40:21;;;;;;;4.43;1.33;;;19.10;99.90;;;;;;5107369;27;20519;-90
2022/09/25 12:43:01;;;;;;;4.07;0.80;;;19.20;99.90;;;;;;5116959;27;20082;-89
2022/09/25 12:45:50;;;;;;;7.28;2.33;;;19.20;99.90;;;;;;5098627;27;20031;-89
2022/09/25 12:48:36;;;;;;;5.65;1.15;;;19.30;99.20;;;;;;5115835;27;20392;-90
2022/09/25 12:51:21;;;;;;;4.20;0.90;;;19.30;99.90;;;;;;5116377;27;20143;-89
2022/09/25 12:54:29;;;;;;;4.25;1.00;;;19.30;99.90;;;;;;5118285;27;20042;-89
2022/09/25 12:57:17;;;;;;;6.45;1.20;;;19.30;99.90;;;;;;5106637;27;20043;-89
2022/09/25 12:59:51;;;;;;;5.32;1.00;;;19.30;99.90;;;;;;5116448;27;20516;-89
2022/09/25 13:02:44;;;;;;;4.07;0.98;;;19.20;99.90;;;;;;5117647;27;20047;-89
2022/09/25 13:05:20;;;;;;;6.40;1.30;;;19.00;99.90;;;;;;5116346;27;20454;-89
2022/09/25 13:07:49;;;;;;;6.10;1.23;;;18.70;99.90;;;;;;5098329;27;20054;-89
2022/09/25 13:10:24;;;;;;;7.43;1.15;;;18.40;99.90;;;;;;5115232;27;20476;-89
2022/09/25 13:12:54;;;;;;;5.10;0.98;;;18.20;99.90;;;;;;5115951;27;20071;-89
2022/09/25 13:15:41;;;;;;;6.22;1.13;;;18.00;99.90;;;;;;5099097;27;20035;-89
2022/09/25 13:18:18;;;;;;;5.82;1.15;;;17.80;99.90;;;;;;5115124;27;20049;-89
2022/09/25 13:20:52;;;;;;;5.25;1.25;;;17.60;99.90;;;;;;5115609;27;20455;-89
2022/09/25 13:23:40;;;;;;;5.35;1.00;;;17.50;99.90;;;;;;5115869;27;20053;-89
2022/09/25 13:26:15;;;;;;;6.25;1.25;;;17.40;99.90;;;;;;5115227;27;20039;-89
2022/09/25 13:28:48;;;;;;;5.50;1.20;;;17.40;99.90;;;;;;5114633;27;20103;-89
2022/09/25 13:31:22;;;;;;;6.35;1.15;;;17.30;99.90;;;;;;5098588;27;20508;-89
2022/09/25 13:34:00;;;;;;;5.75;1.10;;;17.60;99.90;;;;;;5098475;27;20039;-90
2022/09/25 13:36:37;;;;;;;4.78;1.00;;;18.30;99.90;;;;;;5121955;27;20063;-90
2022/09/25 13:42:29;;;;;;;3.85;1.08;;;21.90;97.20;;;;;;5128850;27;20074;-89